createdAt,value
2019-02-18T00:01:29.338Z,99.90
2019-02-18T00:03:58.280Z,99.90
2019-02-18T00:06:27.213Z,99.90
2019-02-18T00:08:56.261Z,99.90
2019-02-18T00:11:25.142Z,99.90
2019-02-18T00:13:53.996Z,99.90
2019-02-18T00:16:22.871Z,99.90
2019-02-18T00:18:51.728Z,99.90
2019-02-18T00:21:20.668Z,99.90
2019-02-18T00:23:49.583Z,99.90
2019-02-18T00:26:18.497Z,99.90
2019-02-18T00:28:47.438Z,99.90
2019-02-18T00:31:16.372Z,99.90
2019-02-18T00:33:45.269Z,99.90
2019-02-18T00:36:14.206Z,99.90
2019-02-18T00:38:43.049Z,99.90
2019-02-18T00:41:11.982Z,99.90
2019-02-18T00:43:40.911Z,99.90
2019-02-18T00:46:09.970Z,99.90
2019-02-18T00:48:39.742Z,99.90
2019-02-18T00:51:08.694Z,99.90
2019-02-18T00:53:37.545Z,99.90
2019-02-18T00:56:06.477Z,99.90
2019-02-18T00:58:35.342Z,99.90
2019-02-18T01:01:04.446Z,99.90
2019-02-18T01:03:33.495Z,99.90
2019-02-18T01:06:02.503Z,99.90
2019-02-18T01:08:31.432Z,99.90
2019-02-18T01:11:00.400Z,99.90
2019-02-18T01:13:29.266Z,99.90
2019-02-18T01:15:58.122Z,99.90
2019-02-18T01:18:26.990Z,99.90
2019-02-18T01:20:55.827Z,99.90
2019-02-18T01:23:25.032Z,99.90
2019-02-18T01:25:53.918Z,99.90
2019-02-18T01:28:22.796Z,99.90
2019-02-18T01:30:51.682Z,99.90
2019-02-18T01:33:20.525Z,99.90
2019-02-18T01:35:49.469Z,99.90
2019-02-18T01:38:18.335Z,99.90
2019-02-18T01:40:47.197Z,99.90
2019-02-18T01:43:16.034Z,99.90
2019-02-18T01:45:44.980Z,99.90
2019-02-18T01:48:13.815Z,99.90
2019-02-18T01:50:42.728Z,99.90
2019-02-18T01:53:12.849Z,99.90
2019-02-18T01:55:41.807Z,99.90
2019-02-18T01:58:10.651Z,99.90
2019-02-18T02:00:39.672Z,99.90
2019-02-18T02:03:08.593Z,99.90
2019-02-18T02:05:37.439Z,99.90
2019-02-18T02:08:06.460Z,99.90
2019-02-18T02:10:35.737Z,99.90
2019-02-18T02:13:26.870Z,99.90
2019-02-18T02:15:55.981Z,99.90
2019-02-18T02:18:24.877Z,99.90
2019-02-18T02:20:53.894Z,99.90
2019-02-18T02:23:22.793Z,99.90
2019-02-18T02:25:51.775Z,99.90
2019-02-18T02:28:20.696Z,99.90
2019-02-18T02:30:49.548Z,99.90
2019-02-18T02:33:18.498Z,99.90
2019-02-18T02:35:47.433Z,99.90
2019-02-18T02:38:16.375Z,99.90
2019-02-18T02:40:45.298Z,99.90
2019-02-18T02:43:14.143Z,99.90
2019-02-18T02:45:43.069Z,99.90
2019-02-18T02:48:12.012Z,99.90
2019-02-18T02:50:40.971Z,99.90
2019-02-18T02:53:09.880Z,99.90
2019-02-18T02:55:38.728Z,99.90
2019-02-18T02:58:07.681Z,99.90
2019-02-18T03:00:36.582Z,99.90
2019-02-18T03:03:05.546Z,99.90
2019-02-18T03:05:34.542Z,99.90
2019-02-18T03:08:03.485Z,99.90
2019-02-18T03:10:32.377Z,99.90
2019-02-18T03:13:01.293Z,99.90
2019-02-18T03:15:30.123Z,99.90
2019-02-18T03:17:59.056Z,99.90
2019-02-18T03:20:27.910Z,99.90
2019-02-18T03:22:56.769Z,99.90
2019-02-18T03:25:27.264Z,99.90
2019-02-18T03:28:23.455Z,99.90
2019-02-18T03:31:11.486Z,99.90
2019-02-18T03:33:44.156Z,99.90
2019-02-18T03:36:13.093Z,99.90
2019-02-18T03:38:41.976Z,99.90
2019-02-18T03:41:10.893Z,99.90
2019-02-18T03:43:39.822Z,99.90
2019-02-18T03:46:08.853Z,99.90
2019-02-18T03:48:37.714Z,99.90
2019-02-18T03:51:06.840Z,99.90
2019-02-18T03:53:35.690Z,99.90
2019-02-18T03:56:04.615Z,99.90
2019-02-18T03:58:33.481Z,99.90
2019-02-18T04:01:02.744Z,99.90
2019-02-18T04:03:31.837Z,99.90
2019-02-18T04:06:03.349Z,99.90
2019-02-18T04:08:42.501Z,99.90
2019-02-18T04:11:04.311Z,99.90
2019-02-18T04:13:33.313Z,99.90
2019-02-18T04:16:03.185Z,99.90
2019-02-18T04:18:32.189Z,99.90
2019-02-18T04:21:01.034Z,99.90
2019-02-18T04:23:29.901Z,99.90
2019-02-18T04:25:58.783Z,99.90
2019-02-18T04:28:27.739Z,99.90
2019-02-18T04:30:56.590Z,99.90
2019-02-18T04:33:25.446Z,99.90
2019-02-18T04:35:54.490Z,99.90
2019-02-18T04:38:23.345Z,99.90
2019-02-18T04:40:52.194Z,99.90
2019-02-18T04:43:21.062Z,99.90
2019-02-18T04:45:49.942Z,99.90
2019-02-18T04:48:18.821Z,99.90
2019-02-18T04:50:47.646Z,99.90
2019-02-18T04:53:16.512Z,99.90
2019-02-18T04:55:45.344Z,99.90
2019-02-18T04:58:14.190Z,99.90
2019-02-18T05:00:43.077Z,99.90
2019-02-18T05:03:11.992Z,99.90
2019-02-18T05:05:40.935Z,99.90
2019-02-18T05:08:09.902Z,99.90
2019-02-18T05:10:38.745Z,99.90
2019-02-18T05:13:07.581Z,99.90
2019-02-18T05:15:36.465Z,99.90
2019-02-18T05:18:05.416Z,99.90
2019-02-18T05:20:34.318Z,99.90
2019-02-18T05:23:03.327Z,99.90
2019-02-18T05:25:32.238Z,99.90
2019-02-18T05:28:01.149Z,99.90
2019-02-18T05:30:29.978Z,99.90
2019-02-18T05:32:58.874Z,99.90
2019-02-18T05:35:27.730Z,99.90
2019-02-18T05:37:56.602Z,99.90
2019-02-18T05:40:25.446Z,99.90
2019-02-18T05:42:54.395Z,99.90
2019-02-18T05:45:23.296Z,99.90
2019-02-18T05:47:52.164Z,99.90
2019-02-18T05:50:21.100Z,99.90
2019-02-18T05:52:50.115Z,99.90
2019-02-18T05:55:18.989Z,99.90
2019-02-18T05:57:47.886Z,99.90
2019-02-18T06:00:16.807Z,99.90
2019-02-18T06:02:45.638Z,99.90
2019-02-18T06:05:14.536Z,99.90
2019-02-18T06:07:43.370Z,99.90
2019-02-18T06:10:13.867Z,99.90
2019-02-18T06:12:42.917Z,99.90
2019-02-18T06:15:11.931Z,99.90
2019-02-18T06:17:40.805Z,99.90
2019-02-18T06:20:10.027Z,99.90
2019-02-18T06:22:39.400Z,99.90
2019-02-18T06:25:08.339Z,99.90
2019-02-18T06:27:37.261Z,99.90
2019-02-18T06:30:06.943Z,99.90
2019-02-18T06:32:35.783Z,99.90
2019-02-18T06:35:04.919Z,99.90
2019-02-18T06:37:33.758Z,99.90
2019-02-18T06:40:02.777Z,99.90
2019-02-18T06:42:31.770Z,99.90
2019-02-18T06:45:22.580Z,99.90
2019-02-18T06:47:51.470Z,99.90
2019-02-18T06:50:20.410Z,99.90
2019-02-18T06:52:49.325Z,99.90
2019-02-18T06:55:18.337Z,99.90
2019-02-18T06:58:04.974Z,99.90
2019-02-18T07:00:46.616Z,99.90
2019-02-18T07:03:21.866Z,99.90
2019-02-18T07:06:27.913Z,99.90
2019-02-18T07:09:18.885Z,99.90
2019-02-18T07:11:52.585Z,99.90
2019-02-18T07:14:21.538Z,99.90
2019-02-18T07:16:50.396Z,99.90
2019-02-18T07:19:19.260Z,99.90
2019-02-18T07:21:48.310Z,99.90
2019-02-18T07:24:17.171Z,99.90
2019-02-18T07:26:46.004Z,99.90
2019-02-18T07:29:14.939Z,99.90
2019-02-18T07:31:43.782Z,99.90
2019-02-18T07:34:12.698Z,99.90
2019-02-18T07:36:41.627Z,99.90
2019-02-18T07:39:10.550Z,99.90
2019-02-18T07:41:39.525Z,99.90
2019-02-18T07:44:08.466Z,99.90
2019-02-18T07:46:37.327Z,99.90
2019-02-18T07:49:06.230Z,99.90
2019-02-18T07:51:35.193Z,99.90
2019-02-18T07:54:04.099Z,99.90
2019-02-18T07:56:32.977Z,99.90
2019-02-18T07:59:01.874Z,99.90
2019-02-18T08:01:30.738Z,99.90
2019-02-18T08:03:59.589Z,99.90
2019-02-18T08:06:28.443Z,99.90
2019-02-18T08:08:57.615Z,99.90
2019-02-18T08:11:26.744Z,99.90
2019-02-18T08:13:55.648Z,99.90
2019-02-18T08:16:24.584Z,99.90
2019-02-18T08:18:53.447Z,99.90
2019-02-18T08:21:22.426Z,99.90
2019-02-18T08:23:59.747Z,99.90
2019-02-18T08:26:22.021Z,99.90
2019-02-18T08:28:50.971Z,99.90
2019-02-18T08:31:19.986Z,99.40
2019-02-18T08:33:48.827Z,98.60
2019-02-18T08:36:17.775Z,97.10
2019-02-18T08:38:46.698Z,96.50
2019-02-18T08:41:15.665Z,96.00
2019-02-18T08:43:44.592Z,95.90
2019-02-18T08:46:13.433Z,95.50
2019-02-18T08:48:42.285Z,93.80
2019-02-18T08:51:11.164Z,93.30
2019-02-18T08:53:40.055Z,93.10
2019-02-18T08:56:08.999Z,92.40
2019-02-18T08:58:37.852Z,91.10
2019-02-18T09:01:06.850Z,85.40
2019-02-18T09:03:35.779Z,81.80
2019-02-18T09:06:04.686Z,77.40
2019-02-18T09:08:33.555Z,72.10
2019-02-18T09:11:02.583Z,66.50
2019-02-18T09:13:31.421Z,63.80
2019-02-18T09:16:00.626Z,59.70
2019-02-18T09:18:29.629Z,57.00
2019-02-18T09:20:58.489Z,56.60
2019-02-18T09:23:35.128Z,54.50
2019-02-18T09:26:04.946Z,50.30
2019-02-18T09:28:33.877Z,50.30
2019-02-18T09:31:02.900Z,50.20
2019-02-18T09:33:31.891Z,49.40
2019-02-18T09:36:00.751Z,48.30
2019-02-18T09:38:29.578Z,45.50
2019-02-18T09:40:58.467Z,44.50
2019-02-18T09:43:27.372Z,43.40
2019-02-18T09:45:56.292Z,43.50
2019-02-18T09:48:25.469Z,44.30
2019-02-18T09:50:54.427Z,44.60
2019-02-18T09:53:23.295Z,44.20
2019-02-18T09:55:52.234Z,43.40
2019-02-18T09:58:21.082Z,43.10
2019-02-18T10:00:49.922Z,43.30
2019-02-18T10:03:18.782Z,44.60
2019-02-18T10:05:47.638Z,42.90
2019-02-18T10:08:16.503Z,42.60
2019-02-18T10:10:55.071Z,41.90
2019-02-18T10:13:15.920Z,42.80
2019-02-18T10:15:44.842Z,41.30
2019-02-18T10:18:13.694Z,42.30
2019-02-18T10:20:42.599Z,42.00
2019-02-18T10:23:11.681Z,42.70
2019-02-18T10:25:40.900Z,43.40
2019-02-18T10:28:09.866Z,43.30
2019-02-18T10:30:38.866Z,44.50
2019-02-18T10:33:07.894Z,45.00
2019-02-18T10:35:36.818Z,45.00
2019-02-18T10:38:05.767Z,44.30
2019-02-18T10:40:34.630Z,43.50
2019-02-18T10:43:03.580Z,40.80
2019-02-18T10:45:32.525Z,39.70
2019-02-18T10:48:01.462Z,41.20
2019-02-18T10:50:30.315Z,41.10
2019-02-18T10:52:59.803Z,41.10
2019-02-18T10:55:28.735Z,42.00
2019-02-18T10:57:57.709Z,43.50
2019-02-18T11:00:27.823Z,43.60
2019-02-18T11:02:56.775Z,43.40
2019-02-18T11:05:25.707Z,42.40
2019-02-18T11:07:55.058Z,41.60
2019-02-18T11:10:23.918Z,42.00
2019-02-18T11:12:52.876Z,42.90
2019-02-18T11:15:21.730Z,42.10
2019-02-18T11:17:50.680Z,43.80
2019-02-18T11:20:19.618Z,44.70
2019-02-18T11:22:48.566Z,43.80
2019-02-18T11:25:17.636Z,43.80
2019-02-18T11:27:46.509Z,43.90
2019-02-18T11:30:15.679Z,42.80
2019-02-18T11:32:44.804Z,42.00
2019-02-18T11:35:14.090Z,41.60
2019-02-18T11:37:43.029Z,41.70
2019-02-18T11:40:13.473Z,42.80
2019-02-18T11:42:42.536Z,44.20
2019-02-18T11:45:13.014Z,43.90
2019-02-18T11:47:41.958Z,44.40
2019-02-18T11:50:12.009Z,43.70
2019-02-18T11:52:40.937Z,44.50
2019-02-18T11:55:10.521Z,45.60
2019-02-18T11:57:39.474Z,46.10
2019-02-18T12:00:09.754Z,45.30
2019-02-18T12:02:38.670Z,44.30
2019-02-18T12:05:09.938Z,45.40
2019-02-18T12:07:40.996Z,45.70
2019-02-18T12:10:10.332Z,45.50
2019-02-18T12:12:40.536Z,45.20
2019-02-18T12:15:10.323Z,45.90
2019-02-18T12:17:39.257Z,46.70
2019-02-18T12:20:10.233Z,47.40
2019-02-18T12:22:39.194Z,46.30
2019-02-18T12:25:08.527Z,46.60
2019-02-18T12:27:37.398Z,47.10
2019-02-18T12:30:07.442Z,47.90
2019-02-18T12:32:36.396Z,48.20
2019-02-18T12:35:05.538Z,48.20
2019-02-18T12:37:34.450Z,48.10
2019-02-18T12:40:03.603Z,48.80
2019-02-18T12:42:32.867Z,49.60
2019-02-18T12:45:01.727Z,49.70
2019-02-18T12:47:30.682Z,49.30
2019-02-18T12:49:59.625Z,49.50
2019-02-18T12:52:28.786Z,49.20
2019-02-18T12:55:00.285Z,49.60
2019-02-18T12:57:29.017Z,50.70
2019-02-18T12:59:58.226Z,51.00
2019-02-18T13:02:27.326Z,51.30
2019-02-18T13:04:56.271Z,51.80
2019-02-18T13:07:25.290Z,51.10
2019-02-18T13:09:54.156Z,52.00
2019-02-18T13:12:23.334Z,52.60
2019-02-18T13:14:52.229Z,52.40
2019-02-18T13:17:21.619Z,53.00
2019-02-18T13:19:50.651Z,52.30
2019-02-18T13:22:19.655Z,53.70
2019-02-18T13:24:48.572Z,53.60
2019-02-18T13:27:17.582Z,53.00
2019-02-18T13:29:46.646Z,53.50
2019-02-18T13:32:15.556Z,53.10
2019-02-18T13:34:44.706Z,54.40
2019-02-18T13:37:13.577Z,53.40
2019-02-18T13:39:42.713Z,53.50
2019-02-18T13:42:11.570Z,53.60
2019-02-18T13:44:40.516Z,54.20
2019-02-18T13:47:09.526Z,54.60
2019-02-18T13:49:38.827Z,53.40
2019-02-18T13:52:07.758Z,54.20
2019-02-18T13:54:36.762Z,54.70
2019-02-18T13:57:09.918Z,54.60
2019-02-18T13:59:36.479Z,54.90
2019-02-18T14:02:05.794Z,55.00
2019-02-18T14:04:35.029Z,55.20
2019-02-18T14:07:03.954Z,54.90
2019-02-18T14:09:33.623Z,55.10
2019-02-18T14:12:02.840Z,55.70
2019-02-18T14:14:33.986Z,55.70
2019-02-18T14:17:03.268Z,55.30
2019-02-18T14:19:32.572Z,55.40
2019-02-18T14:22:03.050Z,55.40
2019-02-18T14:24:33.457Z,56.00
2019-02-18T14:27:02.811Z,55.40
2019-02-18T14:29:31.794Z,55.90
2019-02-18T14:32:00.658Z,56.30
2019-02-18T14:34:29.681Z,56.20
2019-02-18T14:36:58.519Z,56.20
2019-02-18T14:39:27.844Z,56.40
2019-02-18T14:41:56.770Z,56.40
2019-02-18T14:44:25.799Z,57.40
2019-02-18T14:46:54.823Z,57.30
2019-02-18T14:49:24.033Z,57.50
2019-02-18T14:51:53.054Z,57.90
2019-02-18T14:54:22.450Z,57.80
2019-02-18T14:56:51.423Z,57.30
2019-02-18T14:59:20.376Z,57.80
2019-02-18T15:01:49.273Z,58.30
2019-02-18T15:04:18.430Z,58.30
2019-02-18T15:06:47.438Z,58.30
2019-02-18T15:09:16.581Z,58.10
2019-02-18T15:11:45.509Z,57.70
2019-02-18T15:14:14.464Z,58.00
2019-02-18T15:16:43.397Z,57.80
2019-02-18T15:19:12.781Z,57.90
2019-02-18T15:21:41.816Z,58.30
2019-02-18T15:24:10.727Z,58.70
2019-02-18T15:26:39.678Z,59.50
2019-02-18T15:29:08.750Z,59.80
2019-02-18T15:31:38.032Z,60.20
2019-02-18T15:34:07.369Z,60.50
2019-02-18T15:36:36.406Z,60.70
2019-02-18T15:39:06.842Z,60.90
2019-02-18T15:41:36.435Z,61.30
2019-02-18T15:44:05.583Z,61.30
2019-02-18T15:46:34.909Z,62.30
2019-02-18T15:49:04.941Z,61.70
2019-02-18T15:51:34.505Z,62.10
2019-02-18T15:54:03.424Z,62.20
2019-02-18T15:56:32.452Z,62.70
2019-02-18T15:59:02.762Z,63.00
2019-02-18T16:01:31.760Z,63.40
2019-02-18T16:04:00.795Z,64.10
2019-02-18T16:06:29.819Z,64.10
2019-02-18T16:08:58.726Z,65.60
2019-02-18T16:11:35.340Z,65.50
2019-02-18T16:14:04.596Z,66.00
2019-02-18T16:16:34.329Z,65.50
2019-02-18T16:19:05.123Z,65.90
2019-02-18T16:21:34.395Z,66.10
2019-02-18T16:24:03.416Z,66.60
2019-02-18T16:26:32.847Z,66.90
2019-02-18T16:29:01.941Z,68.00
2019-02-18T16:31:34.664Z,67.60
2019-02-18T16:34:03.859Z,68.10
2019-02-18T16:36:32.794Z,69.20
2019-02-18T16:39:04.094Z,69.50
2019-02-18T16:41:33.034Z,69.70
2019-02-18T16:44:02.015Z,69.60
2019-02-18T16:46:31.282Z,70.00
2019-02-18T16:49:00.628Z,70.90
2019-02-18T16:51:29.722Z,71.10
2019-02-18T16:53:58.583Z,71.80
2019-02-18T16:56:27.457Z,72.30
2019-02-18T16:58:56.386Z,72.60
2019-02-18T17:01:25.421Z,73.00
2019-02-18T17:03:54.441Z,73.40
2019-02-18T17:06:23.381Z,74.30
2019-02-18T17:08:52.370Z,74.60
2019-02-18T17:11:21.266Z,75.20
2019-02-18T17:13:50.115Z,75.70
2019-02-18T17:16:19.941Z,76.80
2019-02-18T17:18:48.971Z,77.50
2019-02-18T17:21:17.999Z,78.40
2019-02-18T17:23:46.939Z,79.30
2019-02-18T17:26:15.988Z,80.40
2019-02-18T17:28:44.858Z,81.60
2019-02-18T17:31:14.382Z,83.40
2019-02-18T17:33:43.277Z,84.70
2019-02-18T17:36:12.237Z,86.70
2019-02-18T17:38:41.232Z,88.50
2019-02-18T17:41:10.248Z,90.10
2019-02-18T17:43:39.297Z,91.00
2019-02-18T17:46:08.615Z,91.80
2019-02-18T17:48:37.660Z,92.70
2019-02-18T17:51:06.737Z,93.80
2019-02-18T17:53:36.801Z,95.00
2019-02-18T17:56:06.040Z,96.10
2019-02-18T17:58:38.919Z,97.20
2019-02-18T18:01:08.763Z,98.40
2019-02-18T18:03:37.729Z,99.30
2019-02-18T18:06:06.674Z,99.90
2019-02-18T18:08:35.642Z,99.90
2019-02-18T18:11:04.634Z,99.90
2019-02-18T18:13:33.672Z,99.90
2019-02-18T18:16:03.326Z,99.90
2019-02-18T18:18:32.361Z,99.90
2019-02-18T18:21:05.164Z,99.90
2019-02-18T18:23:34.101Z,99.90
2019-02-18T18:26:03.274Z,99.90
2019-02-18T18:28:32.438Z,99.90
2019-02-18T18:31:01.751Z,99.90
2019-02-18T18:33:30.687Z,99.90
2019-02-18T18:36:01.232Z,99.90
2019-02-18T18:38:34.753Z,99.90
2019-02-18T18:41:03.954Z,99.90
2019-02-18T18:43:35.398Z,99.90
2019-02-18T18:46:04.385Z,99.90
2019-02-18T18:48:34.329Z,99.90
2019-02-18T18:51:03.781Z,99.90
2019-02-18T18:53:32.798Z,99.90
2019-02-18T18:56:01.905Z,99.90
2019-02-18T18:58:31.239Z,99.90
2019-02-18T19:01:00.199Z,99.90
2019-02-18T19:03:29.148Z,99.90
2019-02-18T19:05:58.005Z,99.90
2019-02-18T19:08:28.370Z,99.90
2019-02-18T19:10:59.285Z,99.90
2019-02-18T19:13:28.363Z,99.90
2019-02-18T19:15:57.846Z,99.90
2019-02-18T19:18:26.884Z,99.90
2019-02-18T19:20:55.765Z,99.90
2019-02-18T19:23:24.808Z,99.90
2019-02-18T19:25:56.951Z,99.90
2019-02-18T19:28:27.709Z,99.90
2019-02-18T19:31:04.366Z,99.90
2019-02-18T19:33:34.972Z,99.90
2019-02-18T19:36:07.334Z,99.90
2019-02-18T19:38:41.963Z,99.90
2019-02-18T19:41:11.844Z,99.90
2019-02-18T19:43:50.402Z,99.90
2019-02-18T19:46:19.348Z,99.90
2019-02-18T19:48:54.450Z,99.90
2019-02-18T19:51:24.028Z,99.90
2019-02-18T19:53:55.064Z,99.90
2019-02-18T19:56:25.375Z,99.90
2019-02-18T19:58:55.946Z,99.90
2019-02-18T20:01:29.342Z,99.90
2019-02-18T20:04:02.373Z,99.90
2019-02-18T20:06:35.851Z,99.90
2019-02-18T20:09:10.694Z,99.90
2019-02-18T20:11:41.853Z,99.90
2019-02-18T20:14:14.527Z,99.90
2019-02-18T20:16:44.458Z,99.90
2019-02-18T20:19:16.275Z,99.90
2019-02-18T20:21:46.686Z,99.90
2019-02-18T20:24:29.500Z,99.90
2019-02-18T20:26:57.681Z,99.90
2019-02-18T20:29:29.637Z,99.90
2019-02-18T20:32:00.118Z,99.90
2019-02-18T20:34:30.953Z,99.90
2019-02-18T20:37:01.855Z,99.90
2019-02-18T20:39:38.022Z,99.90
2019-02-18T20:42:08.142Z,99.90
2019-02-18T20:44:40.973Z,99.90
2019-02-18T20:47:17.186Z,99.90
2019-02-18T20:49:47.866Z,99.90
2019-02-18T20:52:19.746Z,99.90
2019-02-18T20:54:52.858Z,99.90
2019-02-18T20:57:35.575Z,99.90
2019-02-18T21:00:10.056Z,99.90
2019-02-18T21:02:45.685Z,99.90
2019-02-18T21:05:17.372Z,99.90
2019-02-18T21:07:47.862Z,99.90
2019-02-18T21:10:18.108Z,99.90
2019-02-18T21:12:56.113Z,99.90
2019-02-18T21:15:26.431Z,99.90
2019-02-18T21:17:57.512Z,99.90
2019-02-18T21:20:27.998Z,99.90
2019-02-18T21:22:58.709Z,99.90
2019-02-18T21:25:28.906Z,99.90
2019-02-18T21:28:02.322Z,99.90
2019-02-18T21:30:32.985Z,99.90
2019-02-18T21:33:02.899Z,99.90
2019-02-18T21:35:38.159Z,99.90
2019-02-18T21:38:09.073Z,99.90
2019-02-18T21:40:43.819Z,99.90
2019-02-18T21:43:21.442Z,99.90
2019-02-18T21:45:59.295Z,99.90
2019-02-18T21:48:31.718Z,99.90
2019-02-18T21:51:05.081Z,99.90
2019-02-18T21:53:39.704Z,99.90
2019-02-18T21:56:13.072Z,99.90
2019-02-18T21:58:43.102Z,99.90
2019-02-18T22:01:13.041Z,99.90
2019-02-18T22:03:43.521Z,99.90
2019-02-18T22:06:14.274Z,99.90
2019-02-18T22:08:47.056Z,99.90
2019-02-18T22:11:22.747Z,99.90
2019-02-18T22:13:55.382Z,99.90
2019-02-18T22:16:25.862Z,99.90
2019-02-18T22:18:56.368Z,99.90
2019-02-18T22:21:27.256Z,99.90
2019-02-18T22:24:06.761Z,99.90
2019-02-18T22:26:39.856Z,99.90
2019-02-18T22:29:10.587Z,99.90
2019-02-18T22:31:43.812Z,99.90
2019-02-18T22:34:16.578Z,99.90
2019-02-18T22:36:50.773Z,99.90
2019-02-18T22:39:25.209Z,99.90
2019-02-18T22:41:57.391Z,99.90
2019-02-18T22:44:27.787Z,99.90
2019-02-18T22:47:03.515Z,99.90
2019-02-18T22:49:45.560Z,99.90
2019-02-18T22:52:24.750Z,99.90
2019-02-18T22:54:55.490Z,99.90
2019-02-18T22:57:24.545Z,99.90
2019-02-18T22:59:57.207Z,99.90
2019-02-18T23:02:27.787Z,99.90
2019-02-18T23:04:58.463Z,99.90
2019-02-18T23:07:28.170Z,99.90
2019-02-18T23:09:58.555Z,99.90
2019-02-18T23:12:37.762Z,99.90
2019-02-18T23:15:08.625Z,99.90
2019-02-18T23:17:41.432Z,99.90
2019-02-18T23:20:11.707Z,99.90
2019-02-18T23:22:43.310Z,99.90
2019-02-18T23:25:13.726Z,99.90
2019-02-18T23:27:53.698Z,99.90
2019-02-18T23:30:23.922Z,99.90
2019-02-18T23:32:56.201Z,99.90
2019-02-18T23:35:31.476Z,99.90
2019-02-18T23:38:01.604Z,99.90
2019-02-18T23:40:36.778Z,99.90
2019-02-18T23:43:07.350Z,99.90
2019-02-18T23:45:41.407Z,99.90
2019-02-18T23:48:10.598Z,99.90
2019-02-18T23:50:42.388Z,99.90
2019-02-18T23:53:13.601Z,99.90
2019-02-18T23:55:47.643Z,99.90
2019-02-18T23:58:23.684Z,99.90
